Terminal Aerodrome Forecast
Issued by NWS Pittsburgh, PA

Current Version | Previous Version | Graphics & Text | Print | Product List | Glossary On
Versions: 1 2 3 4 5 6 7 8 9 10 11 12 13 14 15 16 17 18 19 20 21 22 23 24 25 26
000
FTUS41 KPBZ 191100
TAFPIT
TAF
KPIT 191139Z 1912/2018 26006KT 4SM -FZDZ BR OVC008
      TEMPO 1912/1913 6SM BR OVC010
     FM191300 27007KT 4SM -FZDZ BR OVC008
     FM191400 28007KT P6SM BKN015
     FM200000 31003KT P6SM BKN025=

USA.gov is the U.S. government's official web portal to all federal, state and local government web resources and services.